Hat Yai International Airport
VTSS : now visible

Airfield :











YOU CAN JOIN US ON...

 
LOGIN :

Register | Disclaimer

   EN    FR    IT 

 









Legend :    VFR   Marginal VFR   IFR   Intensive IFR   Very Intensive IFR
Visi :
Ceiling :
>= 8 km
>= 3000ft
5 to 8 km
1000 to 3000 ft
1500m to 5 km
500 to 1000 ft
800 to 1500m
200 to 500 ft
< 800m
< 200 ft
Symbols :   Thunderstorms  Fog  Heavy snow  Heavy precipitations  Wind > 20 kt






- Airport Elevation : 90 ft
- IATA code : HDY


VTSS - Hat Yai International

CURRENT METAR :
  • 010530Z 33007KT 270V080 9999 SCT020 35/24 Q1009 NOSIG

EXPIRED METARs :
  • 010500Z 34004KT 9999 SCT020 35/23 Q1009 NOSIG
  • 010430Z VRB05KT 9999 SCT020 34/23 Q1010 NOSIG
  • 010400Z 05005KT 280V080 9999 SCT020 34/23 Q1010 NOSIG
  • 010330Z 01005KT 270V080 9999 FEW020 34/24 Q1011 NOSIG
  • 010300Z 01004KT 9999 FEW020 33/24 Q1011 NOSIG

TAF TAF VTSS
Valid from the 01 at 00:00 until the 02 at 00:00 UTC


312300Z 0100/0124 00000KT 9999 FEW020
BECMG 0104/0106 06010KT
PROB40
TEMPO 0107/0113 VRB10G20KT 5000 TSRA FEW016CB SCT018 BKN100
BECMG 0114/0116 27003KT



MET'MAP, your aeronautical weather chart ! - Copyright ORBIFLY December 2007 - Disclaimer

ORBIFLY MET'MAP TEAM :

Programming & Development : Alexandra Zaïnal
Concept & original design : Baudouin d'Aumeries
Assistance for programming : Marc-Olivier Méhu
Technical & hardware support : Manuel Goepfert

Contact : metmap@orbifly.com




SOURCES & CREDITS :

   NOAA       Earth
Advisory